Argyle, Canada
Current Conditions -  °F | °C
As of 2:00 PM on Tuesday 21 Oct 2014 (Local Time) from CYQI Reporting Station
Overcast Overcast  
Wind Chill: 57°   Ceiling: 10000
Heat Index: 57°   Visibility: 15mi
Dew Point: 48°   Wind: 10mph
Humidity: 72%   Direction: 180°S
Pressure: 30.14"   Gusts: NA
Location:  43.8°N, 65.85°W
Report Text: CYQI 211700Z 18009KT 15SM FEW025 OVC100 14/09 A3014 RMK SC1AS7 SLP207
Loading
Personal Weather Stations






























Interactive Weather Map
Tropical Storm Tracking
New forecast layout! Learn more

10-Day Weather Forecast

Advertisements
Track Severe Weather on mobile